Time;durP1;ratioP1;P1;durP2;ratioP2;P2;SDS_P1;SDS_P2;PMS_P1;PMS_P2;Temp;Humidity;BMP_temperature;BMP_pressure;BME280_temperature;BME280_humidity;BME280_pressure;Samples;Min_cycle;Max_cycle;Signal;HPM_P1;HPM_P2
2021/03/27 00:01:48;;;;;;;4.00;1.10;;;;;;;;;;4996659;28;20186;-82
2021/03/27 00:04:17;;;;;;;6.28;1.45;;;;;;;;;;4978219;28;20194;-82
2021/03/27 00:06:52;;;;;;;1.98;1.10;;;;;;;;;;4999902;28;20191;-82
2021/03/27 00:09:24;;;;;;;3.17;1.40;;;;;;;;;;4998776;28;20195;-81
2021/03/27 00:11:59;;;;;;;3.92;1.77;;;;;;;;;;4986214;28;20223;-82
2021/03/27 00:14:40;;;;;;;4.53;1.38;;;;;;;;;;4992359;28;20190;-80
2021/03/27 00:17:09;;;;;;;5.32;1.38;;;;;;;;;;5002135;28;20277;-82
2021/03/27 00:19:42;;;;;;;6.25;1.75;;;;;;;;;;4997204;28;20596;-81
2021/03/27 00:22:16;;;;;;;2.28;1.48;;;;;;;;;;4999109;28;20193;-83
2021/03/27 00:25:01;;;;;;;3.95;1.00;;;;;;;;;;5001506;28;20577;-81
2021/03/27 00:27:34;;;;;;;1.70;1.08;;;;;;;;;;5010387;28;20199;-82
2021/03/27 00:30:05;;;;;;;2.03;1.50;;;;;;;;;;5015326;28;20190;-81
2021/03/27 00:32:42;;;;;;;5.00;1.23;;;;;;;;;;5026106;28;20658;-80
2021/03/27 00:35:10;;;;;;;2.55;1.00;;;;;;;;;;5013087;28;20182;-81
2021/03/27 00:37:37;;;;;;;5.00;1.50;;;;;;;;;;5024283;28;20179;-82
2021/03/27 00:40:06;;;;;;;4.43;1.70;;;;;;;;;;5006804;28;20202;-80
2021/03/27 00:42:36;;;;;;;8.05;1.27;;;;;;;;;;5016136;28;20183;-83
2021/03/27 00:45:07;;;;;;;6.55;1.67;;;;;;;;;;5010608;28;20175;-83
2021/03/27 00:47:34;;;;;;;3.17;1.30;;;;;;;;;;4995570;28;20187;-82
2021/03/27 00:50:24;;;;;;;5.15;1.35;;;;;;;;;;5015380;28;20248;-80
2021/03/27 00:52:52;;;;;;;6.70;1.52;;;;;;;;;;5000966;28;20205;-79
2021/03/27 00:55:20;;;;;;;3.00;0.98;;;;;;;;;;5003978;28;20809;-82
2021/03/27 00:57:53;;;;;;;7.97;1.63;;;;;;;;;;5007445;28;20187;-81
2021/03/27 01:00:25;;;;;;;11.45;1.73;;;;;;;;;;5011718;28;20210;-80
2021/03/27 01:02:52;;;;;;;3.92;1.13;;;;;;;;;;5002596;28;20203;-81
2021/03/27 01:05:20;;;;;;;2.33;1.20;;;;;;;;;;4998316;28;20190;-82
2021/03/27 01:07:47;;;;;;;3.85;1.70;;;;;;;;;;5004217;28;20180;-81
2021/03/27 01:10:24;;;;;;;7.65;1.33;;;;;;;;;;4997810;28;20259;-82
2021/03/27 01:12:51;;;;;;;3.75;1.67;;;;;;;;;;4996542;28;20705;-81
2021/03/27 01:15:20;;;;;;;4.35;1.15;;;;;;;;;;5002539;28;20179;-80
2021/03/27 01:17:47;;;;;;;2.17;1.40;;;;;;;;;;5027398;28;20230;-82
2021/03/27 01:20:14;;;;;;;1.58;1.13;;;;;;;;;;5009565;28;20203;-81
2021/03/27 01:22:40;;;;;;;3.25;0.82;;;;;;;;;;5007756;28;20186;-83
2021/03/27 01:25:07;;;;;;;4.80;1.15;;;;;;;;;;5009909;28;20189;-81
2021/03/27 01:27:35;;;;;;;2.85;1.25;;;;;;;;;;5002772;28;20192;-81
2021/03/27 01:30:04;;;;;;;2.85;0.98;;;;;;;;;;5003845;28;20653;-79
2021/03/27 01:32:34;;;;;;;4.65;1.30;;;;;;;;;;5010486;28;20190;-82
2021/03/27 01:35:17;;;;;;;7.68;1.30;;;;;;;;;;5011812;28;20171;-81
2021/03/27 01:37:43;;;;;;;4.20;1.52;;;;;;;;;;5011869;28;20189;-82
2021/03/27 01:40:12;;;;;;;1.85;1.08;;;;;;;;;;5005305;28;20225;-81
2021/03/27 01:42:48;;;;;;;4.25;1.55;;;;;;;;;;5007607;28;20238;-81
2021/03/27 01:45:24;;;;;;;2.45;1.08;;;;;;;;;;5003624;28;20660;-80
2021/03/27 01:47:54;;;;;;;4.32;1.17;;;;;;;;;;5008921;28;20186;-81
2021/03/27 01:50:23;;;;;;;2.72;1.20;;;;;;;;;;5001848;28;20267;-80
2021/03/27 01:53:04;;;;;;;6.18;1.45;;;;;;;;;;4999728;28;20194;-81
2021/03/27 01:55:36;;;;;;;4.22;1.40;;;;;;;;;;4994750;28;20190;-82
2021/03/27 01:58:05;;;;;;;4.88;1.52;;;;;;;;;;5002926;28;20274;-81
2021/03/27 02:00:34;;;;;;;5.50;1.38;;;;;;;;;;5007254;28;20199;-80
2021/03/27 02:03:04;;;;;;;2.03;1.33;;;;;;;;;;5014026;28;20612;-80
2021/03/27 02:05:33;;;;;;;2.92;1.65;;;;;;;;;;5024512;28;20187;-82
2021/03/27 02:08:06;;;;;;;7.13;1.90;;;;;;;;;;5011411;28;20255;-78
2021/03/27 02:10:42;;;;;;;2.97;1.70;;;;;;;;;;5001405;28;20182;-80
2021/03/27 02:13:13;;;;;;;4.82;1.38;;;;;;;;;;5005613;28;20204;-79
2021/03/27 02:15:48;;;;;;;3.97;2.58;;;;;;;;;;5000329;28;20192;-79
2021/03/27 02:18:20;;;;;;;5.85;1.23;;;;;;;;;;4997560;28;20179;-79
2021/03/27 02:20:51;;;;;;;4.63;1.75;;;;;;;;;;5013966;28;20207;-78
2021/03/27 02:23:22;;;;;;;3.97;1.35;;;;;;;;;;5007492;28;20170;-80
2021/03/27 02:26:20;;;;;;;3.60;1.10;;;;;;;;;;5018891;28;20638;-79
2021/03/27 02:28:57;;;;;;;2.53;1.15;;;;;;;;;;4951354;29;20219;-81
2021/03/27 02:31:27;;;;;;;4.07;1.30;;;;;;;;;;4943305;29;20200;-78
2021/03/27 02:34:12;;;;;;;7.72;1.30;;;;;;;;;;4922103;29;20217;-79
2021/03/27 02:36:56;;;;;;;4.10;1.63;;;;;;;;;;4942688;29;20181;-79
2021/03/27 02:39:25;;;;;;;7.43;1.55;;;;;;;;;;4934668;29;20224;-79
2021/03/27 02:41:57;;;;;;;2.55;1.20;;;;;;;;;;4953393;29;20213;-80
2021/03/27 02:44:26;;;;;;;2.55;2.45;;;;;;;;;;4942624;29;20204;-80
2021/03/27 02:46:56;;;;;;;3.15;1.15;;;;;;;;;;4944975;29;20196;-79
2021/03/27 02:49:25;;;;;;;10.07;1.40;;;;;;;;;;4945550;29;20200;-79
2021/03/27 02:52:20;;;;;;;6.07;1.70;;;;;;;;;;4945989;29;20205;-80
2021/03/27 02:54:52;;;;;;;3.05;1.02;;;;;;;;;;4934681;29;20342;-81
2021/03/27 02:57:18;;;;;;;7.72;1.67;;;;;;;;;;4951711;29;20200;-80
2021/03/27 02:59:47;;;;;;;7.10;1.43;;;;;;;;;;4953222;29;20293;-78
2021/03/27 03:02:18;;;;;;;7.07;1.42;;;;;;;;;;4953601;29;20492;-80
2021/03/27 03:04:59;;;;;;;2.60;0.95;;;;;;;;;;4989583;28;20194;-79
2021/03/27 03:07:34;;;;;;;5.10;1.17;;;;;;;;;;5000053;28;20201;-78
2021/03/27 03:10:06;;;;;;;6.70;1.73;;;;;;;;;;4998837;28;20280;-78
2021/03/27 03:12:35;;;;;;;3.05;1.45;;;;;;;;;;4990878;28;20380;-79
2021/03/27 03:15:23;;;;;;;5.45;1.40;;;;;;;;;;5011969;28;20195;-80
2021/03/27 03:17:58;;;;;;;5.22;1.30;;;;;;;;;;5014639;28;20188;-79
2021/03/27 03:20:24;;;;;;;6.15;1.75;;;;;;;;;;4997413;28;20207;-80
2021/03/27 03:22:50;;;;;;;4.30;1.10;;;;;;;;;;4998763;28;20258;-80
2021/03/27 03:25:18;;;;;;;2.63;1.30;;;;;;;;;;4996412;28;20178;-79
2021/03/27 03:27:50;;;;;;;3.30;1.70;;;;;;;;;;5001924;28;20464;-79
2021/03/27 03:30:22;;;;;;;6.88;1.52;;;;;;;;;;5010396;28;20187;-79
2021/03/27 03:32:51;;;;;;;4.75;1.80;;;;;;;;;;5010825;28;20179;-79
2021/03/27 03:35:36;;;;;;;4.55;1.48;;;;;;;;;;5007203;28;20179;-78
2021/03/27 03:38:20;;;;;;;2.78;1.70;;;;;;;;;;5010586;28;20183;-79
2021/03/27 03:40:49;;;;;;;5.35;2.28;;;;;;;;;;5026454;28;20747;-78
2021/03/27 03:43:23;;;;;;;4.18;1.50;;;;;;;;;;5007670;28;20261;-78
2021/03/27 03:45:53;;;;;;;4.90;1.63;;;;;;;;;;5002082;28;20175;-78
2021/03/27 03:48:34;;;;;;;4.20;1.35;;;;;;;;;;5006137;28;20179;-79
2021/03/27 03:51:15;;;;;;;5.80;1.33;;;;;;;;;;5005615;28;20174;-79
2021/03/27 03:54:05;;;;;;;3.25;1.50;;;;;;;;;;5013796;28;20202;-78
2021/03/27 03:56:45;;;;;;;3.78;1.73;;;;;;;;;;5015175;28;20195;-79
2021/03/27 03:59:26;;;;;;;5.65;1.55;;;;;;;;;;5010411;28;20243;-79
2021/03/27 04:01:56;;;;;;;1.85;1.10;;;;;;;;;;5011031;28;20234;-78
2021/03/27 04:04:27;;;;;;;10.05;2.00;;;;;;;;;;5009694;28;20363;-78
2021/03/27 04:06:55;;;;;;;3.72;1.58;;;;;;;;;;5001479;28;20185;-78
2021/03/27 04:09:39;;;;;;;4.55;1.50;;;;;;;;;;5002075;28;20254;-79
2021/03/27 04:12:20;;;;;;;4.60;1.70;;;;;;;;;;5004875;28;20219;-77
2021/03/27 04:15:05;;;;;;;2.95;1.35;;;;;;;;;;5002005;28;20669;-79
2021/03/27 04:17:42;;;;;;;5.03;1.73;;;;;;;;;;5016046;28;20186;-78
2021/03/27 04:20:14;;;;;;;4.45;2.35;;;;;;;;;;5020166;28;20211;-78
2021/03/27 04:22:44;;;;;;;5.38;2.47;;;;;;;;;;5009529;28;20546;-79
2021/03/27 04:25:25;;;;;;;7.40;4.13;;;;;;;;;;5003592;28;20182;-79
2021/03/27 04:27:51;;;;;;;9.80;1.70;;;;;;;;;;5007455;28;20183;-77
2021/03/27 04:30:24;;;;;;;6.80;1.80;;;;;;;;;;5009761;28;20195;-76
2021/03/27 04:33:09;;;;;;;9.05;1.83;;;;;;;;;;5014845;28;20446;-78
2021/03/27 04:35:40;;;;;;;3.72;1.55;;;;;;;;;;5005452;28;20195;-79
2021/03/27 04:38:28;;;;;;;5.82;1.90;;;;;;;;;;5002459;28;20180;-79
2021/03/27 04:41:09;;;;;;;3.83;1.50;;;;;;;;;;5006780;28;20203;-79
2021/03/27 04:43:46;;;;;;;5.15;2.03;;;;;;;;;;5011404;28;20193;-78
2021/03/27 04:46:33;;;;;;;6.55;1.45;;;;;;;;;;4999561;28;20209;-79
2021/03/27 04:49:10;;;;;;;4.78;1.85;;;;;;;;;;5004261;28;20179;-78
2021/03/27 04:51:49;;;;;;;7.68;1.95;;;;;;;;;;5000930;28;20210;-79
2021/03/27 04:54:34;;;;;;;3.25;1.95;;;;;;;;;;4992778;28;20179;-79
2021/03/27 04:57:19;;;;;;;8.05;1.45;;;;;;;;;;5014928;28;20183;-79
2021/03/27 04:59:51;;;;;;;5.45;1.83;;;;;;;;;;5026826;28;20681;-78
2021/03/27 05:02:20;;;;;;;5.20;1.95;;;;;;;;;;5008677;28;20205;-79
2021/03/27 05:04:52;;;;;;;5.75;2.38;;;;;;;;;;5013353;28;20179;-79
2021/03/27 05:07:28;;;;;;;3.15;1.45;;;;;;;;;;5004932;28;20218;-78
2021/03/27 05:10:03;;;;;;;5.57;1.73;;;;;;;;;;5007386;28;20178;-79
2021/03/27 05:12:38;;;;;;;3.53;2.28;;;;;;;;;;5010775;28;20244;-79
2021/03/27 05:15:13;;;;;;;2.70;1.65;;;;;;;;;;5012725;28;20257;-78
2021/03/27 05:17:45;;;;;;;7.28;1.85;;;;;;;;;;5010868;28;20187;-79
2021/03/27 05:20:23;;;;;;;8.02;2.30;;;;;;;;;;4999186;28;20207;-78
2021/03/27 05:22:58;;;;;;;4.57;2.10;;;;;;;;;;5005075;28;20185;-78
2021/03/27 05:25:24;;;;;;;4.93;1.67;;;;;;;;;;5002877;28;20186;-79
2021/03/27 05:28:09;;;;;;;7.63;1.90;;;;;;;;;;4999085;28;20180;-79
2021/03/27 05:30:54;;;;;;;5.45;2.08;;;;;;;;;;4999122;28;20510;-79
2021/03/27 05:33:26;;;;;;;5.10;2.00;;;;;;;;;;4993202;28;20217;-79
2021/03/27 05:35:57;;;;;;;11.07;2.20;;;;;;;;;;5012684;28;20194;-78
2021/03/27 05:38:37;;;;;;;7.28;2.22;;;;;;;;;;5009467;28;20195;-79
2021/03/27 05:41:06;;;;;;;5.35;1.75;;;;;;;;;;5027164;28;20205;-78
2021/03/27 05:43:35;;;;;;;3.40;1.90;;;;;;;;;;4994561;28;20181;-78
2021/03/27 05:46:20;;;;;;;7.22;1.70;;;;;;;;;;5002697;28;20259;-79
2021/03/27 05:49:12;;;;;;;5.45;1.73;;;;;;;;;;5005873;28;20203;-77
2021/03/27 05:51:42;;;;;;;5.50;1.83;;;;;;;;;;5002900;28;20196;-78
2021/03/27 05:54:37;;;;;;;12.70;2.38;;;;;;;;;;5012748;28;20183;-76
2021/03/27 05:57:12;;;;;;;7.15;2.00;;;;;;;;;;5003533;28;20179;-77
2021/03/27 05:59:53;;;;;;;3.92;1.45;;;;;;;;;;5014528;28;20191;-78
2021/03/27 06:02:22;;;;;;;2.60;1.60;;;;;;;;;;4997247;28;20179;-77
2021/03/27 06:05:08;;;;;;;3.78;1.42;;;;;;;;;;4999958;28;20222;-76
2021/03/27 06:07:40;;;;;;;8.60;2.00;;;;;;;;;;5001101;28;20174;-78
2021/03/27 06:10:25;;;;;;;7.25;1.92;;;;;;;;;;4993245;28;20234;-79
2021/03/27 06:13:03;;;;;;;3.47;1.25;;;;;;;;;;5000716;28;20227;-78
2021/03/27 06:15:58;;;;;;;5.03;2.10;;;;;;;;;;5009509;28;20659;-79
2021/03/27 06:18:31;;;;;;;6.38;1.90;;;;;;;;;;4992633;28;20195;-77
2021/03/27 06:21:05;;;;;;;1.73;1.33;;;;;;;;;;5012174;28;20211;-78
2021/03/27 06:23:34;;;;;;;7.15;1.80;;;;;;;;;;5007372;28;20222;-78
2021/03/27 06:26:15;;;;;;;6.82;1.75;;;;;;;;;;5012806;28;20182;-78
2021/03/27 06:28:44;;;;;;;6.07;2.40;;;;;;;;;;5007922;28;20182;-80
2021/03/27 06:31:28;;;;;;;7.03;2.33;;;;;;;;;;4985074;28;20186;-77
2021/03/27 06:34:12;;;;;;;5.80;2.00;;;;;;;;;;5004975;28;20210;-79
2021/03/27 06:36:58;;;;;;;4.30;1.52;;;;;;;;;;5000798;28;20190;-78
2021/03/27 06:39:30;;;;;;;3.85;1.80;;;;;;;;;;4992506;28;20278;-80
2021/03/27 06:42:14;;;;;;;7.68;2.95;;;;;;;;;;5000852;28;20199;-78
2021/03/27 06:44:40;;;;;;;4.28;1.48;;;;;;;;;;4991763;28;20472;-78
2021/03/27 06:47:25;;;;;;;7.13;2.20;;;;;;;;;;4984371;28;20405;-80
2021/03/27 06:50:10;;;;;;;5.63;1.30;;;;;;;;;;4986017;28;20785;-79
2021/03/27 06:52:54;;;;;;;5.72;1.67;;;;;;;;;;4986360;28;20190;-78
2021/03/27 06:55:29;;;;;;;4.30;1.48;;;;;;;;;;4999344;28;20261;-79
2021/03/27 06:58:08;;;;;;;4.60;1.80;;;;;;;;;;4994720;28;20179;-79
2021/03/27 07:00:59;;;;;;;6.15;2.58;;;;;;;;;;5006435;28;20570;-79
2021/03/27 07:03:38;;;;;;;12.13;3.97;;;;;;;;;;4987393;28;20187;-77
2021/03/27 07:06:08;;;;;;;5.28;1.50;;;;;;;;;;5026833;28;20175;-80
2021/03/27 07:08:46;;;;;;;11.00;2.38;;;;;;;;;;5023074;28;20175;-79
2021/03/27 07:11:12;;;;;;;6.85;2.00;;;;;;;;;;5005723;28;20245;-78
2021/03/27 07:13:57;;;;;;;5.70;2.10;;;;;;;;;;5019408;28;20197;-80
2021/03/27 07:16:28;;;;;;;2.70;1.50;;;;;;;;;;4998020;28;20540;-80
2021/03/27 07:19:01;;;;;;;3.10;1.77;;;;;;;;;;4998490;28;20263;-79
2021/03/27 07:21:37;;;;;;;6.68;2.38;;;;;;;;;;5003792;28;20179;-78
2021/03/27 07:24:22;;;;;;;14.40;3.90;;;;;;;;;;5006297;28;20178;-78
2021/03/27 07:27:06;;;;;;;3.38;2.03;;;;;;;;;;4999510;28;20218;-80
2021/03/27 07:29:50;;;;;;;4.22;2.28;;;;;;;;;;5007328;28;20191;-79
2021/03/27 07:32:19;;;;;;;5.07;2.25;;;;;;;;;;5001615;28;20179;-80
2021/03/27 07:34:54;;;;;;;6.97;1.70;;;;;;;;;;5015421;28;20195;-80
2021/03/27 07:37:33;;;;;;;4.88;1.83;;;;;;;;;;5001270;28;20194;-78
2021/03/27 07:40:18;;;;;;;8.90;2.05;;;;;;;;;;5003304;28;20655;-79
2021/03/27 07:42:53;;;;;;;6.85;2.00;;;;;;;;;;5003969;28;20257;-77
2021/03/27 07:45:25;;;;;;;7.93;2.55;;;;;;;;;;5013000;28;20201;-80
2021/03/27 07:47:54;;;;;;;10.65;2.33;;;;;;;;;;5001686;28;20205;-80
2021/03/27 07:50:35;;;;;;;5.68;1.70;;;;;;;;;;5006429;28;20206;-84
2021/03/27 07:53:25;;;;;;;15.63;2.63;;;;;;;;;;5002761;28;20592;-78
2021/03/27 07:56:06;;;;;;;9.45;2.28;;;;;;;;;;4988467;28;20210;-77
2021/03/27 07:58:38;;;;;;;8.70;2.30;;;;;;;;;;4997861;28;20484;-76
2021/03/27 08:01:23;;;;;;;7.00;1.70;;;;;;;;;;4998178;28;20237;-77
2021/03/27 08:03:49;;;;;;;6.53;2.40;;;;;;;;;;5001557;28;20183;-81
2021/03/27 08:06:29;;;;;;;7.00;2.60;;;;;;;;;;5012847;28;20214;-75
2021/03/27 08:08:58;;;;;;;4.75;1.77;;;;;;;;;;5003178;28;20432;-77
2021/03/27 08:11:43;;;;;;;8.88;2.20;;;;;;;;;;4992770;28;20299;-76
2021/03/27 08:14:12;;;;;;;6.10;1.58;;;;;;;;;;5000060;28;20175;-77
2021/03/27 08:16:57;;;;;;;8.60;2.63;;;;;;;;;;5000672;28;20179;-77
2021/03/27 08:19:46;;;;;;;4.32;1.50;;;;;;;;;;5012870;28;20203;-80
2021/03/27 08:22:29;;;;;;;3.53;1.80;;;;;;;;;;4978523;28;20201;-78
2021/03/27 08:24:59;;;;;;;2.97;1.83;;;;;;;;;;4971733;28;20204;-79
2021/03/27 08:27:43;;;;;;;10.65;2.58;;;;;;;;;;4980186;28;20239;-77
2021/03/27 08:30:28;;;;;;;9.20;2.10;;;;;;;;;;4960940;28;20183;-82
2021/03/27 08:33:13;;;;;;;8.90;2.45;;;;;;;;;;4974269;28;20195;-77
2021/03/27 08:35:45;;;;;;;7.75;1.63;;;;;;;;;;4972132;28;20238;-78
2021/03/27 08:38:33;;;;;;;10.32;2.67;;;;;;;;;;4974896;28;20187;-79
2021/03/27 08:41:11;;;;;;;10.52;2.55;;;;;;;;;;4965885;28;20247;-76
2021/03/27 08:43:56;;;;;;;2.58;1.70;;;;;;;;;;4975943;28;20264;-77
2021/03/27 08:46:41;;;;;;;9.88;2.78;;;;;;;;;;4967932;28;20207;-77
2021/03/27 08:49:25;;;;;;;7.80;2.35;;;;;;;;;;4964397;28;20190;-76
2021/03/27 08:52:04;;;;;;;5.40;2.22;;;;;;;;;;4973106;28;20184;-79
2021/03/27 08:54:45;;;;;;;5.10;1.88;;;;;;;;;;4974351;28;20195;-78
2021/03/27 08:57:11;;;;;;;6.95;1.83;;;;;;;;;;4971888;28;20482;-78
2021/03/27 08:59:47;;;;;;;6.57;1.70;;;;;;;;;;4985494;28;20253;-77
2021/03/27 09:02:23;;;;;;;5.68;1.90;;;;;;;;;;5005241;28;20652;-80
2021/03/27 09:05:08;;;;;;;3.83;1.88;;;;;;;;;;5007384;28;20206;-76
2021/03/27 09:07:34;;;;;;;4.43;2.00;;;;;;;;;;4993616;28;20175;-76
2021/03/27 09:10:03;;;;;;;5.93;1.80;;;;;;;;;;4995523;28;20191;-77
2021/03/27 09:12:32;;;;;;;11.97;2.47;;;;;;;;;;4978287;28;624660;-78
2021/03/27 09:14:58;;;;;;;4.43;1.45;;;;;;;;;;5018157;28;20246;-80
2021/03/27 09:17:24;;;;;;;5.73;2.20;;;;;;;;;;4997279;28;20195;-80
2021/03/27 09:19:58;;;;;;;7.63;2.25;;;;;;;;;;5008664;28;20460;-77
2021/03/27 09:22:37;;;;;;;6.32;2.40;;;;;;;;;;4998954;28;20433;-79
2021/03/27 09:25:12;;;;;;;9.57;2.08;;;;;;;;;;5001122;28;20226;-77
2021/03/27 09:27:49;;;;;;;4.68;2.13;;;;;;;;;;5006364;28;20191;-80
2021/03/27 09:30:19;;;;;;;4.72;1.60;;;;;;;;;;4999082;28;20262;-76
2021/03/27 09:32:47;;;;;;;5.22;1.80;;;;;;;;;;5006131;28;20279;-77
2021/03/27 09:35:20;;;;;;;6.88;2.08;;;;;;;;;;5014296;28;20186;-79
2021/03/27 09:38:05;;;;;;;5.90;1.80;;;;;;;;;;5026003;28;20178;-79
2021/03/27 09:40:36;;;;;;;7.30;4.15;;;;;;;;;;5000829;28;20262;-79
2021/03/27 09:43:15;;;;;;;8.45;1.80;;;;;;;;;;5008455;28;20187;-80
2021/03/27 09:46:00;;;;;;;6.78;2.08;;;;;;;;;;5005627;28;20222;-78
2021/03/27 09:48:44;;;;;;;8.80;2.28;;;;;;;;;;4994038;28;20195;-76
2021/03/27 09:51:18;;;;;;;7.60;2.30;;;;;;;;;;4990914;28;20218;-78
2021/03/27 09:53:47;;;;;;;6.97;1.70;;;;;;;;;;5013841;28;20586;-79
2021/03/27 09:56:32;;;;;;;4.22;2.00;;;;;;;;;;4998412;28;20179;-78
2021/03/27 09:59:01;;;;;;;6.50;2.33;;;;;;;;;;4999592;28;20238;-79
2021/03/27 10:01:34;;;;;;;5.80;2.03;;;;;;;;;;5014353;28;20187;-77
2021/03/27 10:04:10;;;;;;;8.10;2.15;;;;;;;;;;4998346;28;20194;-79
2021/03/27 10:06:36;;;;;;;4.03;1.35;;;;;;;;;;4997244;28;20187;-79
2021/03/27 10:09:20;;;;;;;6.40;1.73;;;;;;;;;;5005514;28;20187;-79
2021/03/27 10:11:49;;;;;;;4.25;1.80;;;;;;;;;;5012546;28;20482;-80
2021/03/27 10:14:20;;;;;;;4.90;1.60;;;;;;;;;;5001108;28;20246;-81
2021/03/27 10:16:46;;;;;;;6.60;1.77;;;;;;;;;;4999439;28;20224;-81
2021/03/27 10:19:18;;;;;;;10.27;1.97;;;;;;;;;;4991962;28;20195;-83
2021/03/27 10:21:44;;;;;;;5.15;1.98;;;;;;;;;;4990365;28;20473;-82
2021/03/27 10:24:29;;;;;;;6.78;3.10;;;;;;;;;;4998641;28;20255;-77
2021/03/27 10:26:55;;;;;;;4.88;2.03;;;;;;;;;;5001822;28;20194;-80
2021/03/27 10:29:39;;;;;;;5.75;1.77;;;;;;;;;;5007440;28;20258;-75
2021/03/27 10:32:24;;;;;;;5.50;1.60;;;;;;;;;;5017920;28;20189;-77
2021/03/27 10:34:56;;;;;;;2.03;1.83;;;;;;;;;;5010656;28;20644;-76
2021/03/27 10:37:37;;;;;;;5.50;2.05;;;;;;;;;;4997322;28;20199;-77
2021/03/27 10:40:22;;;;;;;6.70;1.83;;;;;;;;;;4998866;28;20203;-77
2021/03/27 10:43:07;;;;;;;4.68;1.80;;;;;;;;;;5007033;28;20184;-78
2021/03/27 10:46:02;;;;;;;8.95;1.50;;;;;;;;;;4998429;28;20184;-77
2021/03/27 10:48:28;;;;;;;5.78;2.22;;;;;;;;;;4975578;28;20211;-78
2021/03/27 10:51:09;;;;;;;4.47;1.73;;;;;;;;;;4990065;28;20210;-78
2021/03/27 10:53:54;;;;;;;4.82;1.35;;;;;;;;;;4989643;28;20455;-78
2021/03/27 10:56:20;;;;;;;6.88;1.77;;;;;;;;;;4990204;28;20617;-80
2021/03/27 10:58:49;;;;;;;9.70;2.50;;;;;;;;;;4980985;28;20192;-77
2021/03/27 11:01:29;;;;;;;2.65;1.60;;;;;;;;;;4979978;28;20211;-78
2021/03/27 11:04:10;;;;;;;4.50;1.70;;;;;;;;;;4981700;28;20184;-79
2021/03/27 11:06:59;;;;;;;6.05;2.17;;;;;;;;;;4982555;28;20192;-80
2021/03/27 11:09:44;;;;;;;2.97;1.60;;;;;;;;;;4960234;28;20207;-80
2021/03/27 11:12:13;;;;;;;5.63;1.58;;;;;;;;;;4983143;28;20243;-80
2021/03/27 11:14:49;;;;;;;3.25;1.70;;;;;;;;;;4972095;28;20192;-81
2021/03/27 11:17:31;;;;;;;3.78;1.55;;;;;;;;;;4984964;28;20185;-80
2021/03/27 11:20:00;;;;;;;5.50;1.45;;;;;;;;;;4981214;28;20203;-81
2021/03/27 11:22:31;;;;;;;6.40;1.98;;;;;;;;;;4981073;28;20179;-80
2021/03/27 11:25:16;;;;;;;5.10;1.83;;;;;;;;;;4987825;28;20223;-78
2021/03/27 11:27:48;;;;;;;3.80;1.30;;;;;;;;;;4991238;28;20262;-81
2021/03/27 11:30:14;;;;;;;4.68;1.77;;;;;;;;;;4990170;28;20218;-78
2021/03/27 11:32:44;;;;;;;4.35;1.83;;;;;;;;;;4993299;28;20184;-81
2021/03/27 11:35:29;;;;;;;3.92;2.13;;;;;;;;;;5024017;28;20186;-79
2021/03/27 11:38:07;;;;;;;2.47;1.20;;;;;;;;;;5013167;28;20182;-82
2021/03/27 11:40:39;;;;;;;3.50;1.20;;;;;;;;;;5000347;28;20217;-83
2021/03/27 11:43:05;;;;;;;3.60;1.65;;;;;;;;;;4993902;28;20222;-80
2021/03/27 11:45:36;;;;;;;5.33;1.60;;;;;;;;;;4994983;28;20184;-80
2021/03/27 11:48:21;;;;;;;5.00;1.45;;;;;;;;;;5002349;28;20430;-80
2021/03/27 11:50:50;;;;;;;3.95;1.73;;;;;;;;;;4995204;28;20191;-80
2021/03/27 11:53:21;;;;;;;8.55;2.15;;;;;;;;;;4999857;28;20191;-81
2021/03/27 11:55:53;;;;;;;5.82;2.05;;;;;;;;;;4996669;28;20194;-80
2021/03/27 11:58:26;;;;;;;6.28;2.00;;;;;;;;;;4997357;28;20175;-79
2021/03/27 12:01:04;;;;;;;5.97;1.77;;;;;;;;;;4997433;28;20263;-79
2021/03/27 12:03:45;;;;;;;3.22;1.42;;;;;;;;;;5004617;28;20179;-79
2021/03/27 12:06:11;;;;;;;5.82;2.28;;;;;;;;;;4994830;28;20202;-78
2021/03/27 12:08:42;;;;;;;7.33;2.43;;;;;;;;;;5014988;28;20191;-82
2021/03/27 12:11:23;;;;;;;4.45;1.90;;;;;;;;;;5003367;28;20559;-81
2021/03/27 12:13:59;;;;;;;10.23;2.30;;;;;;;;;;5007920;28;20206;-82
2021/03/27 12:16:31;;;;;;;5.25;1.90;;;;;;;;;;5007579;28;20296;-82
2021/03/27 12:19:03;;;;;;;3.45;1.40;;;;;;;;;;5004071;28;20209;-78
2021/03/27 12:21:49;;;;;;;10.50;2.45;;;;;;;;;;4996347;28;20211;-83
2021/03/27 12:24:27;;;;;;;4.68;1.38;;;;;;;;;;5004443;28;20188;-77
2021/03/27 12:27:01;;;;;;;6.53;1.90;;;;;;;;;;5012987;28;20183;-81
2021/03/27 12:29:33;;;;;;;2.70;1.75;;;;;;;;;;5000425;28;20210;-78
2021/03/27 12:32:18;;;;;;;1.98;1.65;;;;;;;;;;5013488;28;20185;-80
2021/03/27 12:34:52;;;;;;;5.30;1.27;;;;;;;;;;5011415;28;20191;-80
2021/03/27 12:37:37;;;;;;;2.97;1.60;;;;;;;;;;5007456;28;20356;-78
2021/03/27 12:40:22;;;;;;;3.27;1.63;;;;;;;;;;5012768;28;20529;-79
2021/03/27 12:42:50;;;;;;;4.07;1.87;;;;;;;;;;5002349;28;20504;-82
2021/03/27 12:45:25;;;;;;;3.00;1.50;;;;;;;;;;5008555;28;20445;-82
2021/03/27 12:47:58;;;;;;;3.07;1.40;;;;;;;;;;5002524;28;20448;-78
2021/03/27 12:50:34;;;;;;;5.00;1.50;;;;;;;;;;5002881;28;20540;-82
2021/03/27 12:53:19;;;;;;;5.43;1.70;;;;;;;;;;5000863;28;20473;-80
2021/03/27 12:55:47;;;;;;;5.60;1.40;;;;;;;;;;4994799;28;20434;-80
2021/03/27 12:58:32;;;;;;;3.08;1.50;;;;;;;;;;5001938;28;20191;-82
2021/03/27 13:01:08;;;;;;;3.70;1.50;;;;;;;;;;5005764;28;20214;-80
2021/03/27 13:03:37;;;;;;;2.63;1.17;;;;;;;;;;5008878;28;20182;-79
2021/03/27 13:06:38;;;;;;;4.13;1.53;;;;;;;;;;5004000;28;20456;-81
2021/03/27 13:09:13;;;;;;;3.08;1.48;;;;;;;;;;4994960;28;20477;-78
2021/03/27 13:11:58;;;;;;;2.15;1.00;;;;;;;;;;5005541;28;20223;-79
2021/03/27 13:14:42;;;;;;;5.65;1.30;;;;;;;;;;4994625;28;20559;-83
2021/03/27 13:17:21;;;;;;;4.20;1.65;;;;;;;;;;4989164;28;20194;-78
2021/03/27 13:19:56;;;;;;;4.85;1.75;;;;;;;;;;4999045;28;20202;-78
2021/03/27 13:22:37;;;;;;;2.42;1.60;;;;;;;;;;5003590;28;20223;-77
2021/03/27 13:25:18;;;;;;;2.45;1.63;;;;;;;;;;4985565;28;20190;-78
2021/03/27 13:27:47;;;;;;;1.92;1.00;;;;;;;;;;4984913;28;20208;-80
2021/03/27 13:30:20;;;;;;;4.43;1.15;;;;;;;;;;4984452;28;20207;-82
2021/03/27 13:32:51;;;;;;;2.22;1.65;;;;;;;;;;4981911;28;20198;-78
2021/03/27 13:35:21;;;;;;;2.90;1.25;;;;;;;;;;5000529;28;20730;-78
2021/03/27 13:37:52;;;;;;;1.60;1.30;;;;;;;;;;4994484;28;20213;-81
2021/03/27 13:40:29;;;;;;;3.13;1.13;;;;;;;;;;5000654;28;20286;-82
2021/03/27 13:42:55;;;;;;;1.85;0.90;;;;;;;;;;4988024;28;20512;-78
2021/03/27 13:45:27;;;;;;;2.70;1.13;;;;;;;;;;5010798;28;20187;-82
2021/03/27 13:47:56;;;;;;;1.50;0.90;;;;;;;;;;5009058;28;20442;-80
2021/03/27 13:50:41;;;;;;;2.55;1.40;;;;;;;;;;4994439;28;20273;-80
2021/03/27 13:53:10;;;;;;;1.95;1.30;;;;;;;;;;5015823;28;20727;-80
2021/03/27 13:55:36;;;;;;;2.05;1.15;;;;;;;;;;5008504;28;20178;-81
2021/03/27 13:58:23;;;;;;;2.37;1.33;;;;;;;;;;5004828;28;20187;-81
2021/03/27 14:00:58;;;;;;;3.13;1.98;;;;;;;;;;4998547;28;20481;-79
2021/03/27 14:03:24;;;;;;;1.80;0.95;;;;;;;;;;4996039;28;20191;-80
2021/03/27 14:05:53;;;;;;;2.90;1.10;;;;;;;;;;5007506;28;20183;-81
2021/03/27 14:08:22;;;;;;;3.15;1.48;;;;;;;;;;5003205;28;20591;-77
2021/03/27 14:10:48;;;;;;;1.70;1.00;;;;;;;;;;4995704;28;20274;-80
2021/03/27 14:13:21;;;;;;;1.47;0.90;;;;;;;;;;4997365;28;20513;-80
2021/03/27 14:16:01;;;;;;;1.75;1.33;;;;;;;;;;5006715;28;20882;-82
2021/03/27 14:18:27;;;;;;;2.08;1.00;;;;;;;;;;4994232;28;20245;-81
2021/03/27 14:20:57;;;;;;;1.93;1.17;;;;;;;;;;4995910;28;20235;-77
2021/03/27 14:23:41;;;;;;;4.35;1.40;;;;;;;;;;4999213;28;20447;-78
2021/03/27 14:26:12;;;;;;;6.00;1.30;;;;;;;;;;4997507;28;20188;-78
2021/03/27 14:28:41;;;;;;;2.60;1.30;;;;;;;;;;4995407;28;20695;-77
2021/03/27 14:31:07;;;;;;;2.65;1.30;;;;;;;;;;4992726;28;20198;-81
2021/03/27 14:33:43;;;;;;;4.72;1.25;;;;;;;;;;4996005;28;20190;-79
2021/03/27 14:36:15;;;;;;;2.38;1.33;;;;;;;;;;5004008;28;20221;-82
2021/03/27 14:39:00;;;;;;;3.70;1.10;;;;;;;;;;4996073;28;20187;-77
2021/03/27 14:41:32;;;;;;;2.22;1.30;;;;;;;;;;5010137;28;20210;-77
2021/03/27 14:44:15;;;;;;;2.42;1.02;;;;;;;;;;4993250;28;20184;-77
2021/03/27 14:46:41;;;;;;;2.42;1.10;;;;;;;;;;5004310;28;20187;-78
2021/03/27 14:49:36;;;;;;;2.10;1.50;;;;;;;;;;4994124;28;20190;-79
2021/03/27 14:52:15;;;;;;;1.70;1.30;;;;;;;;;;4988892;28;20578;-79
2021/03/27 14:54:44;;;;;;;5.00;1.60;;;;;;;;;;5007672;28;20258;-82
2021/03/27 14:57:13;;;;;;;6.72;2.97;;;;;;;;;;5000240;28;20193;-80
2021/03/27 14:59:41;;;;;;;2.75;1.17;;;;;;;;;;5002565;28;20231;-78
2021/03/27 15:02:15;;;;;;;5.65;1.48;;;;;;;;;;4993876;28;20248;-77
2021/03/27 15:05:00;;;;;;;9.00;1.35;;;;;;;;;;5004898;28;20179;-81
2021/03/27 15:07:44;;;;;;;3.65;1.80;;;;;;;;;;5003832;28;20190;-82
2021/03/27 15:10:29;;;;;;;3.75;1.40;;;;;;;;;;5000964;28;20186;-80
2021/03/27 15:12:58;;;;;;;3.03;1.60;;;;;;;;;;5002909;28;20201;-77
2021/03/27 15:15:28;;;;;;;5.47;1.85;;;;;;;;;;4991661;28;20231;-81
2021/03/27 15:18:14;;;;;;;2.80;1.70;;;;;;;;;;5007127;28;20335;-81
2021/03/27 15:20:45;;;;;;;2.97;1.30;;;;;;;;;;5000786;28;20207;-79
2021/03/27 15:23:18;;;;;;;3.60;1.20;;;;;;;;;;4998210;28;20270;-81
2021/03/27 15:29:05;;;;;;;2.55;1.38;;;;;;;;;;5001953;28;20242;-80
2021/03/27 15:31:46;;;;;;;4.03;1.15;;;;;;;;;;5005405;28;20187;-79
2021/03/27 15:34:18;;;;;;;2.08;1.42;;;;;;;;;;4992892;28;20262;-80
2021/03/27 15:36:56;;;;;;;3.80;1.27;;;;;;;;;;4998484;28;20193;-80